Time;durP1;ratioP1;P1;durP2;ratioP2;P2;SDS_P1;SDS_P2;PMS_P1;PMS_P2;Temp;Humidity;BMP_temperature;BMP_pressure;BME280_temperature;BME280_humidity;BME280_pressure;Samples;Min_cycle;Max_cycle;Signal;HPM_P1;HPM_P2
2023/09/17 00:02:01;;;;;;;8.73;5.00;;;12.90;99.90;12.20;100651;;;;586693;241;24053;-78
2023/09/17 00:04:29;;;;;;;5.00;4.27;;;12.90;99.90;12.30;100652;;;;586484;241;24115;-77
2023/09/17 00:06:57;;;;;;;5.57;4.07;;;12.90;99.90;12.30;100661;;;;586412;241;24095;-79
2023/09/17 00:09:25;;;;;;;4.60;3.97;;;13.00;99.90;12.30;100658;;;;586285;241;24160;-78
2023/09/17 00:11:53;;;;;;;4.47;4.07;;;13.00;99.90;12.40;100659;;;;586233;241;24073;-78
2023/09/17 00:14:24;;;;;;;5.23;3.93;;;13.10;99.90;12.40;100654;;;;586479;241;24051;-79
2023/09/17 00:16:52;;;;;;;3.77;3.30;;;13.10;99.90;12.50;100656;;;;585900;241;24106;-79
2023/09/17 00:19:17;;;;;;;4.40;3.63;;;13.20;99.90;12.60;100655;;;;586200;241;24069;-78
2023/09/17 00:21:44;;;;;;;6.57;3.97;;;13.20;99.90;12.60;100650;;;;586229;241;24102;-78
2023/09/17 00:24:12;;;;;;;12.90;4.23;;;13.30;99.90;12.70;100647;;;;595349;238;24095;-77
2023/09/17 00:26:40;;;;;;;3.93;3.63;;;13.30;99.90;12.70;100649;;;;586354;241;24066;-77
2023/09/17 00:29:08;;;;;;;6.87;4.17;;;13.40;99.90;12.70;100638;;;;586221;241;24040;-78
2023/09/17 00:31:37;;;;;;;6.47;3.80;;;13.40;99.90;12.70;100643;;;;588261;240;24087;-77
2023/09/17 00:34:04;;;;;;;4.17;3.83;;;13.40;99.90;12.80;100637;;;;587826;240;24044;-77
2023/09/17 00:36:32;;;;;;;4.37;3.80;;;13.50;99.90;12.80;100644;;;;587533;240;24084;-78
2023/09/17 00:39:00;;;;;;;4.53;4.10;;;13.50;99.90;12.80;100641;;;;587436;240;24094;-76
2023/09/17 00:41:28;;;;;;;7.13;3.90;;;13.50;99.90;12.80;100646;;;;587242;240;24053;-77
2023/09/17 00:43:56;;;;;;;4.20;3.87;;;13.50;99.90;12.80;100643;;;;587228;240;24052;-77
2023/09/17 00:46:24;;;;;;;5.17;3.77;;;13.50;99.90;12.80;100632;;;;587206;240;25086;-78
2023/09/17 00:48:52;;;;;;;7.03;3.97;;;13.40;99.90;12.70;100635;;;;586992;240;24053;-77
2023/09/17 00:51:19;;;;;;;5.90;3.77;;;13.40;99.90;12.70;100633;;;;586795;240;24088;-77
2023/09/17 00:53:51;;;;;;;4.40;3.77;;;13.40;99.90;12.70;100629;;;;586509;240;24108;-77
2023/09/17 00:56:18;;;;;;;4.33;3.83;;;13.40;99.90;12.80;100625;;;;586406;240;24060;-77
2023/09/17 00:58:43;;;;;;;4.23;3.80;;;13.40;99.90;12.80;100636;;;;586232;240;24088;-76
2023/09/17 01:01:14;;;;;;;8.87;4.50;;;13.50;99.90;12.80;100642;;;;586519;240;24061;-77
2023/09/17 01:03:42;;;;;;;7.37;4.13;;;13.50;99.90;12.80;100640;;;;596047;237;25122;-78
2023/09/17 01:06:12;;;;;;;4.77;3.73;;;13.40;99.90;12.70;100639;;;;586293;241;24093;-77
2023/09/17 01:08:40;;;;;;;6.40;3.83;;;13.40;99.90;12.70;100634;;;;591162;241;24091;-78
2023/09/17 01:11:09;;;;;;;3.90;3.60;;;13.40;99.90;12.60;100633;;;;586178;241;24052;-78
2023/09/17 01:13:42;;;;;;;6.67;4.53;;;13.30;99.90;12.60;100626;;;;591103;241;24054;-78
2023/09/17 01:16:05;;;;;;;5.80;3.73;;;13.30;99.90;12.50;100621;;;;585908;241;24071;-78
2023/09/17 01:18:32;;;;;;;7.20;3.80;;;13.20;99.90;12.50;100625;;;;586395;241;24071;-78
2023/09/17 01:21:09;;;;;;;6.47;4.27;;;13.20;99.90;12.50;100624;;;;586279;241;24134;-78
2023/09/17 01:23:46;;;;;;;6.10;3.73;;;13.20;99.90;12.50;100618;;;;576220;241;24103;-78
2023/09/17 01:26:14;;;;;;;4.33;3.70;;;13.20;99.90;12.60;100617;;;;572111;241;24069;-78
2023/09/17 01:28:42;;;;;;;4.97;4.10;;;13.20;99.90;12.60;100618;;;;586267;241;24076;-78
2023/09/17 01:31:10;;;;;;;5.10;3.80;;;13.20;99.90;12.60;100606;;;;591177;241;24080;-78
2023/09/17 01:33:38;;;;;;;5.97;4.30;;;13.20;99.90;12.60;100606;;;;586603;241;24127;-78
2023/09/17 01:36:12;;;;;;;5.47;4.30;;;13.30;99.90;12.60;100611;;;;586672;241;24058;-78
2023/09/17 01:38:49;;;;;;;6.37;4.27;;;13.30;99.90;12.70;100600;;;;585814;241;24124;-78
2023/09/17 01:41:17;;;;;;;5.10;4.57;;;13.30;99.90;12.70;100603;;;;591778;239;24042;-78
2023/09/17 01:43:45;;;;;;;5.57;4.33;;;13.30;99.90;12.70;100605;;;;586616;240;24040;-77
2023/09/17 01:46:16;;;;;;;6.20;4.10;;;13.40;99.90;12.70;100609;;;;587630;240;24096;-78
2023/09/17 01:48:42;;;;;;;4.73;3.57;;;13.30;99.90;12.70;100605;;;;587451;240;24078;-78
2023/09/17 01:51:11;;;;;;;9.00;4.57;;;13.30;99.90;12.60;100598;;;;597398;239;24067;-76
2023/09/17 01:53:38;;;;;;;6.43;4.50;;;13.30;99.90;12.60;100595;;;;587139;240;24044;-77
2023/09/17 01:56:06;;;;;;;9.47;4.70;;;13.30;99.90;12.60;100595;;;;586756;240;24098;-77
2023/09/17 01:58:34;;;;;;;10.03;4.83;;;13.30;99.90;12.60;100598;;;;576114;245;24060;-78
2023/09/17 02:01:02;;;;;;;6.13;4.53;;;13.20;99.90;12.50;100593;;;;595540;240;24060;-77
2023/09/17 02:03:30;;;;;;;8.27;4.30;;;13.20;99.90;12.50;100596;;;;586886;240;24124;-77
2023/09/17 02:05:58;;;;;;;6.00;4.53;;;13.20;99.90;12.50;100601;;;;586536;240;24122;-77
2023/09/17 02:08:26;;;;;;;7.87;4.13;;;13.20;99.90;12.50;100601;;;;586404;240;24086;-77
2023/09/17 02:10:54;;;;;;;9.40;4.53;;;13.10;99.90;12.40;100597;;;;586611;240;24052;-77
2023/09/17 02:13:21;;;;;;;9.10;4.97;;;13.10;99.90;12.40;100599;;;;586462;240;26202;-78
2023/09/17 02:15:50;;;;;;;6.53;4.13;;;13.00;99.90;12.30;100602;;;;586634;240;24074;-77
2023/09/17 02:18:19;;;;;;;6.93;4.57;;;12.90;99.90;12.30;100604;;;;586359;241;24067;-78
2023/09/17 02:20:47;;;;;;;9.10;5.23;;;12.90;99.90;12.20;100607;;;;586339;241;24093;-77
2023/09/17 02:23:15;;;;;;;7.17;4.37;;;12.90;99.90;12.20;100599;;;;586272;241;24178;-78
2023/09/17 02:25:43;;;;;;;7.77;5.13;;;12.90;99.90;12.20;100589;;;;586195;241;24050;-79
2023/09/17 02:28:10;;;;;;;7.00;4.30;;;12.80;99.90;12.10;100588;;;;595361;241;24140;-77
2023/09/17 02:30:38;;;;;;;8.13;5.00;;;12.80;99.90;12.10;100588;;;;586263;241;24133;-78
2023/09/17 02:33:10;;;;;;;6.70;5.23;;;12.80;99.90;12.20;100596;;;;586712;241;24038;-77
2023/09/17 02:35:36;;;;;;;7.40;5.30;;;12.90;99.90;12.20;100595;;;;586665;241;24084;-78
2023/09/17 02:38:04;;;;;;;9.23;5.13;;;12.80;99.90;12.30;100583;;;;586702;241;24132;-77
2023/09/17 02:40:32;;;;;;;6.73;4.93;;;12.90;99.90;12.30;100580;;;;586703;241;24089;-77
2023/09/17 02:43:01;;;;;;;10.30;5.37;;;12.90;99.90;12.30;100592;;;;586619;241;24028;-77
2023/09/17 02:45:27;;;;;;;8.70;5.87;;;12.90;99.90;12.30;100594;;;;586658;241;24046;-77
2023/09/17 02:47:56;;;;;;;8.97;5.27;;;13.00;99.90;12.40;100583;;;;586610;241;24051;-78
2023/09/17 02:50:23;;;;;;;8.60;5.27;;;13.00;99.90;12.40;100589;;;;586610;241;24055;-77
2023/09/17 02:52:51;;;;;;;7.67;5.97;;;13.10;99.90;12.40;100588;;;;587041;239;24038;-78
2023/09/17 02:55:20;;;;;;;8.00;4.80;;;13.10;99.90;12.40;100579;;;;597298;240;24053;-78
2023/09/17 02:57:49;;;;;;;7.30;5.43;;;13.10;99.90;12.50;100579;;;;596567;240;24102;-78
2023/09/17 03:00:17;;;;;;;7.70;5.67;;;13.10;99.90;12.50;100586;;;;587026;240;24068;-78
2023/09/17 03:02:49;;;;;;;6.90;5.50;;;13.10;99.90;12.40;100588;;;;587041;240;24089;-78
2023/09/17 03:05:17;;;;;;;10.83;5.77;;;13.10;99.90;12.40;100577;;;;586764;240;24075;-77
2023/09/17 03:07:44;;;;;;;7.43;5.67;;;13.10;99.90;12.40;100582;;;;586890;240;24049;-78
2023/09/17 03:10:12;;;;;;;9.87;5.67;;;13.10;99.90;12.40;100573;;;;586851;240;24048;-78
2023/09/17 03:12:40;;;;;;;8.80;6.17;;;13.10;99.90;12.40;100578;;;;586482;240;25145;-78
2023/09/17 03:15:08;;;;;;;7.77;5.63;;;13.10;99.90;12.40;100574;;;;590501;240;24044;-78
2023/09/17 03:17:40;;;;;;;11.53;5.30;;;13.10;99.90;12.50;100571;;;;586477;240;24090;-77
2023/09/17 03:20:22;;;;;;;7.83;5.73;;;13.10;99.90;12.40;100570;;;;595422;239;24075;-77
2023/09/17 03:22:47;;;;;;;9.13;6.10;;;13.10;99.90;12.40;100572;;;;586220;240;24181;-78
2023/09/17 03:25:15;;;;;;;11.17;5.87;;;13.10;99.90;12.40;100565;;;;595757;237;24058;-78
2023/09/17 03:27:43;;;;;;;6.77;5.50;;;13.10;99.90;12.50;100567;;;;590597;240;24095;-78
2023/09/17 03:30:11;;;;;;;11.80;5.97;;;13.10;99.90;12.50;100567;;;;586188;241;24129;-78
2023/09/17 03:32:39;;;;;;;6.87;5.40;;;13.10;99.90;12.50;100573;;;;595554;241;24058;-78
2023/09/17 03:35:10;;;;;;;7.80;6.30;;;13.10;99.90;12.50;100562;;;;586674;241;24059;-79
2023/09/17 03:37:35;;;;;;;8.17;5.43;;;13.10;99.90;12.50;100562;;;;595560;237;24064;-79
2023/09/17 03:40:12;;;;;;;9.70;5.80;;;13.10;99.90;12.50;100559;;;;586666;241;24040;-77
2023/09/17 03:42:40;;;;;;;11.13;5.90;;;13.10;99.90;12.50;100564;;;;586604;241;24042;-78
2023/09/17 03:45:09;;;;;;;8.53;5.93;;;13.10;99.90;12.40;100555;;;;586743;241;24037;-78
2023/09/17 03:47:36;;;;;;;9.30;5.60;;;13.10;99.90;12.40;100552;;;;586549;241;24071;-77
2023/09/17 03:50:04;;;;;;;7.97;5.80;;;13.00;99.90;12.30;100551;;;;586647;241;24073;-78
2023/09/17 03:52:34;;;;;;;8.73;5.70;;;13.00;99.90;12.20;100552;;;;586509;241;24044;-78
2023/09/17 03:55:00;;;;;;;6.67;5.70;;;12.90;99.90;12.20;100549;;;;586349;241;24114;-78
2023/09/17 03:57:28;;;;;;;7.67;5.77;;;12.90;99.90;12.10;100549;;;;591515;241;24048;-78
2023/09/17 03:59:56;;;;;;;12.87;5.93;;;12.80;99.90;12.10;100555;;;;595528;237;24059;-78
2023/09/17 04:02:25;;;;;;;10.20;5.90;;;12.70;99.90;12.10;100552;;;;586207;241;24173;-78
2023/09/17 04:04:54;;;;;;;8.63;5.67;;;12.70;99.90;12.10;100544;;;;587091;240;24047;-78
2023/09/17 04:07:21;;;;;;;8.50;5.73;;;12.70;99.90;12.00;100545;;;;587528;240;24205;-78
2023/09/17 04:09:49;;;;;;;10.57;5.67;;;12.70;99.90;12.00;100538;;;;587147;240;24052;-78
2023/09/17 04:12:17;;;;;;;6.90;5.37;;;12.70;99.90;12.00;100547;;;;587157;240;24040;-78
2023/09/17 04:14:45;;;;;;;7.53;5.70;;;12.60;99.90;11.90;100541;;;;586828;240;24064;-78
2023/09/17 04:17:14;;;;;;;8.77;5.20;;;12.60;99.90;11.90;100543;;;;586943;240;24038;-78
2023/09/17 04:19:41;;;;;;;8.20;5.83;;;12.60;99.90;11.90;100546;;;;586794;240;24063;-78
2023/09/17 04:22:09;;;;;;;7.90;5.33;;;12.60;99.90;11.90;100558;;;;585221;242;24077;-79
2023/09/17 04:24:42;;;;;;;8.53;6.20;;;12.60;99.90;11.90;100555;;;;586466;240;24066;-77
2023/09/17 04:27:08;;;;;;;7.63;5.13;;;12.50;99.90;11.90;100554;;;;586391;240;24104;-77
2023/09/17 04:29:36;;;;;;;8.63;5.67;;;12.60;99.90;11.90;100558;;;;575877;245;24067;-78
2023/09/17 04:32:04;;;;;;;6.83;5.93;;;12.50;99.90;11.90;100561;;;;586480;240;24100;-78
2023/09/17 04:34:32;;;;;;;9.60;6.17;;;12.50;99.90;11.90;100561;;;;596264;237;24072;-77
2023/09/17 04:37:00;;;;;;;6.90;5.67;;;12.50;99.90;11.90;100571;;;;586982;240;24050;-77
2023/09/17 04:39:28;;;;;;;9.53;5.77;;;12.50;99.90;11.90;100558;;;;586926;240;24117;-78
2023/09/17 04:41:56;;;;;;;6.97;6.07;;;12.60;99.90;11.90;100566;;;;586736;241;24040;-76
2023/09/17 04:44:24;;;;;;;12.20;6.10;;;12.60;99.90;12.00;100573;;;;586726;241;24060;-79
2023/09/17 04:46:51;;;;;;;7.70;6.63;;;12.60;99.90;12.00;100571;;;;586614;241;24058;-78
2023/09/17 04:49:19;;;;;;;7.43;5.77;;;12.60;99.90;12.00;100573;;;;586678;241;24033;-78
2023/09/17 04:51:47;;;;;;;7.73;6.00;;;12.60;99.90;12.00;100574;;;;586679;241;24056;-78
2023/09/17 04:54:15;;;;;;;9.97;6.37;;;12.60;99.90;12.00;100578;;;;586763;241;24064;-78
2023/09/17 04:56:43;;;;;;;7.07;5.83;;;12.70;99.90;12.10;100577;;;;586712;241;24092;-78
2023/09/17 04:59:11;;;;;;;10.43;5.90;;;12.70;99.90;12.10;100577;;;;586714;241;24055;-78
2023/09/17 05:01:39;;;;;;;8.43;6.63;;;12.80;99.90;12.20;100580;;;;595497;237;24055;-77
2023/09/17 05:04:08;;;;;;;8.23;6.00;;;12.90;99.90;12.20;100586;;;;586388;241;24071;-78
2023/09/17 05:06:36;;;;;;;10.77;6.27;;;12.90;99.90;12.30;100590;;;;586722;241;24038;-78
2023/09/17 05:09:04;;;;;;;11.90;6.50;;;12.90;99.90;12.40;100588;;;;595949;241;24088;-78
2023/09/17 05:11:32;;;;;;;8.77;6.13;;;13.00;99.90;12.50;100583;;;;586549;241;24045;-77
2023/09/17 05:14:01;;;;;;;8.20;5.80;;;13.10;99.90;12.50;100593;;;;586640;241;24028;-78
2023/09/17 05:16:28;;;;;;;7.97;6.37;;;13.20;99.90;12.60;100599;;;;587403;240;24063;-77
2023/09/17 05:18:57;;;;;;;7.97;6.03;;;13.40;99.90;12.80;100599;;;;587963;240;25127;-77
2023/09/17 05:21:25;;;;;;;7.43;5.87;;;13.40;99.90;12.90;100598;;;;587550;240;24065;-78
2023/09/17 05:23:52;;;;;;;11.03;6.40;;;13.50;99.90;13.20;100605;;;;587526;240;24065;-78
2023/09/17 05:26:21;;;;;;;12.30;6.53;;;13.70;99.90;14.30;100611;;;;587282;240;24045;-79
2023/09/17 05:28:48;;;;;;;9.63;6.37;;;14.60;99.90;16.00;100613;;;;587215;240;24045;-78
2023/09/17 05:31:16;;;;;;;11.03;5.97;;;16.20;99.90;17.70;100623;;;;592047;240;24123;-78
2023/09/17 05:33:45;;;;;;;9.13;6.03;;;19.50;99.90;19.30;100612;;;;596082;240;24043;-78
2023/09/17 05:36:14;;;;;;;8.50;6.33;;;21.00;99.90;20.80;100621;;;;586964;240;24050;-78
2023/09/17 05:38:42;;;;;;;7.67;5.83;;;20.90;99.90;22.00;100619;;;;587003;240;24048;-78
2023/09/17 05:41:12;;;;;;;7.80;6.20;;;22.20;99.90;23.10;100619;;;;586987;240;24045;-79
2023/09/17 05:43:38;;;;;;;7.27;5.63;;;23.40;99.90;24.10;100619;;;;586886;240;24041;-78
2023/09/17 05:46:05;;;;;;;7.60;6.90;;;24.40;99.90;24.90;100628;;;;586981;240;23150;-78
2023/09/17 05:48:33;;;;;;;6.93;6.23;;;25.30;99.90;25.80;100621;;;;586784;240;23054;-78
2023/09/17 05:51:03;;;;;;;7.33;6.53;;;26.20;99.90;26.50;100627;;;;586937;240;23047;-79
2023/09/17 05:53:30;;;;;;;6.97;6.23;;;27.00;99.90;27.30;100625;;;;586709;241;24045;-78
2023/09/17 05:56:01;;;;;;;8.30;6.53;;;27.70;98.00;28.20;100625;;;;584895;245;23139;-77
2023/09/17 05:58:25;;;;;;;8.18;7.37;;;28.60;94.80;29.00;100624;;;;586333;241;23088;-76
2023/09/17 06:00:53;;;;;;;7.55;6.18;;;29.40;92.80;29.70;100633;;;;586242;241;23058;-80
2023/09/17 06:03:22;;;;;;;10.25;7.15;;;30.10;90.40;30.50;100640;;;;595353;241;23050;-78
2023/09/17 06:05:49;;;;;;;7.78;7.05;;;31.50;81.90;31.20;100638;;;;586260;241;23081;-79
2023/09/17 06:08:18;;;;;;;7.40;6.70;;;32.20;77.80;31.90;100638;;;;586157;241;23165;-78
2023/09/17 06:10:46;;;;;;;7.53;6.90;;;32.20;77.80;32.40;100641;;;;586309;241;23062;-79
2023/09/17 06:13:14;;;;;;;7.18;6.47;;;32.80;74.90;32.90;100639;;;;586238;241;23114;-78
2023/09/17 06:15:45;;;;;;;7.15;6.55;;;33.30;71.50;33.60;100648;;;;586394;241;24046;-79
2023/09/17 06:18:10;;;;;;;7.87;7.15;;;34.00;69.50;34.20;100652;;;;586147;241;23074;-79
2023/09/17 06:20:39;;;;;;;7.57;6.50;;;34.60;65.90;34.90;100653;;;;586360;241;23100;-79
2023/09/17 06:23:05;;;;;;;11.00;6.93;;;35.10;64.20;35.30;100661;;;;585402;241;24100;-79
2023/09/17 06:25:33;;;;;;;8.52;7.20;;;35.50;62.10;35.70;100664;;;;586159;241;23060;-78
2023/09/17 06:28:01;;;;;;;8.98;8.07;;;36.00;60.10;36.30;100658;;;;586980;240;23055;-80
2023/09/17 06:30:29;;;;;;;9.32;8.48;;;36.50;58.30;36.80;100661;;;;587520;240;24135;-80
2023/09/17 06:32:57;;;;;;;8.50;7.43;;;37.00;57.30;37.20;100670;;;;587344;240;23088;-78
2023/09/17 06:35:25;;;;;;;9.43;8.35;;;37.40;56.00;37.50;100666;;;;596794;240;23060;-78
2023/09/17 06:37:53;;;;;;;8.98;8.27;;;37.80;55.30;37.90;100671;;;;587944;240;23115;-78
2023/09/17 06:40:21;;;;;;;8.05;7.35;;;38.20;54.70;38.40;100669;;;;588235;240;23077;-78
2023/09/17 06:42:50;;;;;;;8.30;7.68;;;38.90;52.50;38.80;100670;;;;588005;240;23057;-79
2023/09/17 06:45:18;;;;;;;11.10;8.85;;;38.90;52.50;39.00;100675;;;;587287;240;23102;-78
2023/09/17 06:47:45;;;;;;;8.50;7.70;;;39.20;51.70;39.40;100677;;;;586996;240;23073;-79
2023/09/17 06:50:13;;;;;;;9.77;8.70;;;39.50;51.30;39.70;100679;;;;586971;240;23055;-78
2023/09/17 06:52:42;;;;;;;10.32;8.57;;;39.80;51.00;40.10;100683;;;;591801;240;23058;-79
2023/09/17 06:55:09;;;;;;;9.90;9.02;;;40.20;49.90;40.40;100686;;;;586945;240;23040;-79
2023/09/17 06:57:37;;;;;;;13.90;8.40;;;40.40;49.70;40.50;100685;;;;596260;237;24085;-79
2023/09/17 07:00:06;;;;;;;10.35;7.95;;;40.70;48.80;41.00;100677;;;;586970;240;23061;-79
2023/09/17 07:02:33;;;;;;;10.48;8.40;;;41.00;48.40;41.30;100681;;;;586953;240;23043;-79
2023/09/17 07:05:03;;;;;;;10.13;8.27;;;41.40;47.70;41.70;100690;;;;595460;238;23069;-79
2023/09/17 07:07:29;;;;;;;11.25;8.45;;;41.80;47.30;42.10;100689;;;;586674;241;23090;-79
2023/09/17 07:09:57;;;;;;;9.35;8.13;;;42.20;47.40;42.50;100688;;;;586694;241;24085;-80
2023/09/17 07:12:25;;;;;;;9.43;8.50;;;42.60;46.10;42.90;100690;;;;586728;241;23072;-80
2023/09/17 07:14:53;;;;;;;9.38;8.50;;;42.90;45.40;43.00;100692;;;;586664;241;23044;-79
2023/09/17 07:17:21;;;;;;;8.57;7.78;;;43.50;44.90;43.40;100692;;;;586737;241;24099;-79
2023/09/17 07:19:50;;;;;;;9.38;8.60;;;43.90;44.20;43.80;100695;;;;586733;241;23058;-79
2023/09/17 07:22:18;;;;;;;10.27;9.32;;;43.90;44.20;44.20;100692;;;;586708;241;23064;-79
2023/09/17 07:24:46;;;;;;;8.40;7.80;;;44.30;43.60;44.30;100696;;;;586791;241;23062;-79
2023/09/17 07:27:17;;;;;;;9.70;8.65;;;44.50;43.40;44.70;100693;;;;586854;241;23058;-80
2023/09/17 07:29:42;;;;;;;9.18;8.32;;;44.80;42.90;44.90;100701;;;;586417;241;23062;-79
2023/09/17 07:32:10;;;;;;;8.52;7.93;;;45.10;42.40;44.90;100698;;;;586707;241;23083;-79
2023/09/17 07:34:38;;;;;;;8.95;8.07;;;45.10;42.30;45.20;100702;;;;586740;241;24072;-79
2023/09/17 07:37:09;;;;;;;8.90;8.15;;;45.40;42.10;45.70;100705;;;;595384;237;23064;-78
2023/09/17 07:39:33;;;;;;;9.20;8.40;;;45.80;41.80;46.00;100703;;;;586469;240;23068;-79
2023/09/17 07:42:02;;;;;;;9.23;8.45;;;46.00;41.40;46.00;100710;;;;587556;240;24099;-79
2023/09/17 07:44:29;;;;;;;9.25;8.07;;;46.10;41.10;46.20;100704;;;;587226;240;23104;-80
2023/09/17 07:46:57;;;;;;;9.00;8.20;;;46.30;41.40;46.30;100712;;;;587073;240;23066;-79
2023/09/17 07:49:28;;;;;;;9.98;9.13;;;46.50;41.00;46.40;100716;;;;587047;240;23064;-80
2023/09/17 07:51:53;;;;;;;8.50;7.80;;;46.60;40.80;46.80;100717;;;;586814;240;23074;-80
2023/09/17 07:54:21;;;;;;;8.88;8.27;;;47.00;40.40;47.20;100717;;;;586762;240;23054;-80
2023/09/17 07:56:49;;;;;;;8.32;7.65;;;47.40;40.10;47.50;100716;;;;586892;240;23064;-79
2023/09/17 07:59:17;;;;;;;8.60;7.95;;;47.80;39.80;47.70;100718;;;;586476;240;24113;-78
2023/09/17 08:01:47;;;;;;;8.93;7.97;;;48.00;39.30;48.00;100720;;;;586704;240;23109;-79
2023/09/17 08:04:14;;;;;;;9.63;8.63;;;48.40;39.30;48.10;100720;;;;586484;240;25147;-78
2023/09/17 08:06:41;;;;;;;8.27;7.45;;;48.60;38.80;48.40;100711;;;;586905;240;23110;-78
2023/09/17 08:09:09;;;;;;;8.57;7.75;;;48.90;38.70;48.70;100720;;;;586878;240;23055;-80
2023/09/17 08:11:36;;;;;;;7.95;7.47;;;49.20;38.50;48.70;100719;;;;586962;240;23070;-80
2023/09/17 08:14:04;;;;;;;8.50;7.87;;;49.30;38.30;48.80;100729;;;;586941;240;23116;-79
2023/09/17 08:16:32;;;;;;;9.93;9.02;;;49.50;38.10;49.00;100728;;;;581631;237;46004;-80
2023/09/17 08:19:00;;;;;;;7.95;7.45;;;49.80;37.80;48.90;100726;;;;586668;241;23073;-79
2023/09/17 08:21:28;;;;;;;8.02;7.50;;;49.80;37.60;49.00;100732;;;;586630;241;23046;-79
2023/09/17 08:23:56;;;;;;;8.25;7.43;;;49.80;37.60;49.30;100734;;;;586718;241;23062;-79
2023/09/17 08:26:27;;;;;;;8.20;7.50;;;50.00;37.20;49.20;100732;;;;586686;241;23071;-78
2023/09/17 08:28:53;;;;;;;9.20;8.23;;;50.00;37.20;49.30;100737;;;;581510;241;35128;-79
2023/09/17 08:31:22;;;;;;;7.75;6.90;;;50.20;37.00;49.10;100732;;;;595967;241;23097;-79
2023/09/17 08:33:48;;;;;;;7.93;7.12;;;50.10;37.20;49.40;100736;;;;586645;241;23062;-79
2023/09/17 08:36:19;;;;;;;8.35;7.70;;;50.20;36.90;49.40;100734;;;;586657;241;25302;-78
2023/09/17 08:38:44;;;;;;;7.97;7.43;;;50.20;36.70;49.60;100739;;;;586280;241;23066;-80
2023/09/17 08:41:13;;;;;;;8.95;7.22;;;50.30;36.50;49.50;100738;;;;586195;241;23051;-79
2023/09/17 08:43:40;;;;;;;6.68;6.18;;;50.40;37.00;49.50;100738;;;;586435;241;23067;-80
2023/09/17 08:46:08;;;;;;;7.20;6.62;;;50.50;36.70;49.30;100746;;;;586338;241;23068;-79
2023/09/17 08:48:37;;;;;;;7.62;7.03;;;50.20;36.50;49.40;100740;;;;586696;241;23049;-80
2023/09/17 08:51:05;;;;;;;7.28;6.45;;;50.30;36.70;49.50;100741;;;;586991;240;23053;-80
2023/09/17 08:53:33;;;;;;;8.77;7.05;;;50.50;37.20;49.60;100742;;;;587546;240;23061;-79
2023/09/17 08:56:01;;;;;;;7.47;6.87;;;50.60;36.20;49.80;100745;;;;586750;240;23065;-79
2023/09/17 08:58:31;;;;;;;8.25;7.57;;;50.90;35.70;49.60;100742;;;;587078;240;23079;-80
2023/09/17 09:01:00;;;;;;;7.97;7.37;;;50.90;36.20;49.50;100738;;;;585058;242;23103;-79
2023/09/17 09:03:28;;;;;;;6.87;6.37;;;50.90;36.10;49.70;100741;;;;587882;240;23117;-80
2023/09/17 09:05:57;;;;;;;6.57;6.18;;;51.00;35.50;49.50;100739;;;;577390;245;23078;-79
2023/09/17 09:08:24;;;;;;;9.63;6.15;;;50.90;35.20;49.60;100743;;;;576178;245;23139;-80
2023/09/17 09:10:52;;;;;;;8.65;6.35;;;50.90;35.00;49.30;100738;;;;576301;245;24163;-78
2023/09/17 09:13:20;;;;;;;7.50;6.37;;;50.70;35.20;49.30;100732;;;;586969;240;23066;-80
2023/09/17 09:15:47;;;;;;;7.45;6.85;;;50.80;35.10;49.70;100731;;;;597099;240;23079;-80
2023/09/17 09:18:15;;;;;;;7.75;6.82;;;51.00;34.80;49.40;100731;;;;586945;240;23112;-80
2023/09/17 09:20:46;;;;;;;7.07;6.47;;;51.00;34.60;49.00;100727;;;;586971;240;23098;-79
2023/09/17 09:23:11;;;;;;;7.75;7.00;;;50.70;34.80;48.70;100732;;;;586360;240;23143;-79
2023/09/17 09:25:40;;;;;;;7.97;7.18;;;50.30;35.50;48.60;100734;;;;590414;240;23063;-79
2023/09/17 09:28:08;;;;;;;7.07;6.47;;;50.00;35.80;48.10;100736;;;;586300;241;23061;-79
2023/09/17 09:30:37;;;;;;;8.20;7.50;;;49.70;35.90;47.70;100736;;;;586368;241;24072;-79
2023/09/17 09:33:05;;;;;;;9.38;8.40;;;49.70;35.90;46.90;100737;;;;590195;238;24118;-78
2023/09/17 09:35:33;;;;;;;8.20;7.60;;;49.20;36.40;46.40;100743;;;;590576;241;23048;-79
2023/09/17 09:38:06;;;;;;;7.95;6.90;;;48.60;36.80;45.80;100741;;;;586286;241;23065;-80
2023/09/17 09:40:37;;;;;;;7.75;6.95;;;48.10;37.10;45.40;100740;;;;586162;241;24137;-79
2023/09/17 09:42:59;;;;;;;8.32;7.43;;;47.60;37.90;45.40;100747;;;;591120;241;23050;-79
2023/09/17 09:45:27;;;;;;;7.30;6.75;;;47.50;37.70;44.50;100737;;;;586682;241;23054;-79
2023/09/17 09:47:56;;;;;;;7.68;7.07;;;46.90;37.70;44.00;100736;;;;586610;241;23074;-81
2023/09/17 09:50:32;;;;;;;7.60;7.00;;;46.40;38.30;43.50;100736;;;;586445;241;23062;-80
2023/09/17 09:53:01;;;;;;;9.32;7.53;;;45.90;39.30;43.40;100742;;;;586214;241;23108;-80
2023/09/17 09:55:28;;;;;;;7.32;6.70;;;45.60;39.30;43.70;100744;;;;586285;241;23091;-79
2023/09/17 09:57:53;;;;;;;8.30;7.60;;;45.80;39.10;43.20;100742;;;;591215;238;23102;-80
2023/09/17 10:00:30;;;;;;;8.48;7.03;;;45.60;39.00;42.90;100742;;;;586396;241;24092;-79
2023/09/17 10:02:55;;;;;;;10.18;7.18;;;45.30;39.30;42.20;100741;;;;586928;240;23137;-79
2023/09/17 10:05:36;;;;;;;8.07;7.12;;;44.90;39.30;41.60;100743;;;;587487;240;23098;-79
2023/09/17 10:08:06;;;;;;;7.90;7.10;;;44.30;39.90;41.30;100738;;;;585405;240;23090;-78
2023/09/17 10:10:30;;;;;;;8.90;6.90;;;43.90;40.40;40.80;100742;;;;595530;239;23148;-80
2023/09/17 10:13:02;;;;;;;8.90;7.28;;;43.40;40.60;39.20;100738;;;;591961;238;23110;-80
2023/09/17 10:15:26;;;;;;;7.43;6.72;;;42.00;41.70;37.70;100738;;;;586424;240;24139;-79
2023/09/17 10:17:54;;;;;;;7.43;6.28;;;40.40;43.70;36.40;100732;;;;591760;240;23062;-79
2023/09/17 10:20:26;;;;;;;9.02;7.30;;;38.90;45.00;35.20;100728;;;;586736;240;23063;-79
2023/09/17 10:22:54;;;;;;;7.12;6.37;;;37.50;46.70;34.10;100737;;;;590520;240;23114;-79
2023/09/17 10:25:20;;;;;;;9.75;6.97;;;35.00;50.00;33.20;100738;;;;586398;240;23060;-77
2023/09/17 10:27:49;;;;;;;8.20;7.00;;;33.90;51.80;32.20;100738;;;;586715;240;23121;-78
2023/09/17 10:30:17;;;;;;;7.72;6.90;;;33.80;51.70;31.50;100737;;;;586698;240;23124;-78
2023/09/17 10:32:47;;;;;;;6.72;6.22;;;33.00;53.70;30.70;100744;;;;586650;240;23052;-78
2023/09/17 10:35:19;;;;;;;8.40;6.20;;;32.10;55.30;30.00;100740;;;;595946;240;24098;-79
2023/09/17 10:37:48;;;;;;;8.00;6.97;;;30.40;58.60;29.40;100737;;;;586350;240;23097;-76
2023/09/17 10:40:13;;;;;;;7.85;7.05;;;29.70;60.30;28.70;100743;;;;575689;245;24135;-78
2023/09/17 10:42:40;;;;;;;9.30;8.23;;;29.60;60.20;28.20;100736;;;;585267;241;46092;-78
2023/09/17 10:45:12;;;;;;;12.35;7.55;;;29.00;62.00;27.70;100733;;;;579431;245;23083;-79
2023/09/17 10:47:40;;;;;;;8.73;6.70;;;28.50;63.40;27.30;100734;;;;587061;240;23088;-78
2023/09/17 10:50:08;;;;;;;12.90;7.57;;;28.00;65.70;27.00;100740;;;;576772;246;23054;-77
2023/09/17 10:52:36;;;;;;;9.43;6.63;;;27.70;66.10;26.50;100733;;;;575793;246;23065;-78
2023/09/17 10:55:07;;;;;;;13.20;7.27;;;27.20;67.30;26.20;100741;;;;585999;241;23083;-77
2023/09/17 10:57:40;;;;;;;9.57;6.70;;;26.90;68.70;26.00;100740;;;;596013;237;23062;-77
2023/09/17 11:00:11;;;;;;;8.87;6.57;;;26.50;70.00;25.70;100736;;;;585452;241;24096;-78
2023/09/17 11:02:36;;;;;;;7.73;6.93;;;26.20;71.80;25.40;100736;;;;585886;241;23054;-78
2023/09/17 11:05:07;;;;;;;11.60;7.70;;;25.70;73.80;25.20;100742;;;;575414;245;24167;-78
2023/09/17 11:07:36;;;;;;;7.97;7.17;;;25.50;75.40;25.00;100739;;;;574650;245;23102;-79
2023/09/17 11:10:07;;;;;;;8.17;6.57;;;25.50;74.60;24.80;100738;;;;597006;236;23089;-77
2023/09/17 11:12:35;;;;;;;7.53;6.47;;;25.30;75.40;24.70;100736;;;;576312;246;24064;-78
2023/09/17 11:15:03;;;;;;;11.63;6.73;;;25.10;76.40;24.50;100730;;;;577301;245;23082;-78